createdAt,value
2022-09-11T00:00:05.901Z,14.01
2022-09-11T00:02:58.266Z,13.42
2022-09-11T00:05:44.132Z,13.76
2022-09-11T00:08:31.680Z,14.01
2022-09-11T00:11:20.954Z,12.90
2022-09-11T00:14:06.923Z,12.85
2022-09-11T00:16:52.536Z,13.92
2022-09-11T00:19:39.514Z,13.48
2022-09-11T00:22:25.062Z,12.65
2022-09-11T00:25:10.644Z,13.74
2022-09-11T00:27:56.122Z,13.78
2022-09-11T00:30:44.983Z,13.28
2022-09-11T00:33:30.564Z,13.32
2022-09-11T00:36:27.756Z,13.70
2022-09-11T00:39:14.342Z,13.90
2022-09-11T00:42:00.088Z,12.81
2022-09-11T00:44:45.645Z,13.98
2022-09-11T00:47:31.170Z,12.90
2022-09-11T00:50:21.962Z,13.89
2022-09-11T00:53:10.254Z,14.02
2022-09-11T00:56:00.420Z,14.10
2022-09-11T00:58:48.754Z,12.99
2022-09-11T01:01:34.646Z,14.14
2022-09-11T01:04:21.393Z,14.26
2022-09-11T01:07:06.780Z,14.01
2022-09-11T01:09:53.598Z,14.25
2022-09-11T01:12:49.861Z,13.49
2022-09-11T01:15:45.403Z,14.30
2022-09-11T01:18:45.304Z,14.32
2022-09-11T01:21:56.189Z,14.32
2022-09-11T01:25:02.082Z,14.35
2022-09-11T01:27:53.783Z,13.24
2022-09-11T01:30:47.585Z,13.42
2022-09-11T01:34:02.471Z,14.32
2022-09-11T01:36:58.592Z,14.28
2022-09-11T01:39:53.897Z,14.31
2022-09-11T01:42:43.277Z,13.80
2022-09-11T01:45:31.269Z,14.04
2022-09-11T01:48:21.993Z,14.04
2022-09-11T01:51:12.723Z,14.31
2022-09-11T01:54:01.524Z,13.20
2022-09-11T01:56:52.352Z,13.62
2022-09-11T01:59:46.883Z,14.30
2022-09-11T02:02:36.892Z,14.30
2022-09-11T02:05:31.378Z,13.30
2022-09-11T02:08:29.687Z,14.06
2022-09-11T02:11:17.913Z,14.23
2022-09-11T02:14:22.263Z,14.33
2022-09-11T02:17:45.416Z,14.35
2022-09-11T02:20:31.659Z,14.11
2022-09-11T02:23:17.412Z,13.20
2022-09-11T02:26:04.148Z,14.22
2022-09-11T02:28:49.354Z,13.08
2022-09-11T02:31:36.273Z,13.72
2022-09-11T02:34:27.985Z,14.17
2022-09-11T02:37:34.231Z,13.24
2022-09-11T02:40:44.862Z,14.17
2022-09-11T02:43:39.790Z,14.18
2022-09-11T02:46:53.128Z,14.17
2022-09-11T02:49:39.385Z,14.19
2022-09-11T02:52:24.802Z,14.19
2022-09-11T02:55:20.684Z,14.17
2022-09-11T02:58:15.739Z,12.95
2022-09-11T03:01:03.890Z,13.93
2022-09-11T03:03:51.171Z,12.93
2022-09-11T03:06:37.283Z,14.06
2022-09-11T03:09:22.776Z,14.03
2022-09-11T03:12:12.395Z,13.99
2022-09-11T03:14:57.720Z,13.99
2022-09-11T03:17:43.043Z,13.26
2022-09-11T03:20:28.400Z,13.98
2022-09-11T03:23:14.172Z,12.99
2022-09-11T03:26:00.077Z,13.86
2022-09-11T03:28:46.359Z,13.92
2022-09-11T03:31:37.304Z,13.83
2022-09-11T03:34:25.694Z,13.87
2022-09-11T03:37:11.015Z,13.87
2022-09-11T03:39:56.502Z,12.66
2022-09-11T03:42:41.608Z,12.93
2022-09-11T03:45:27.873Z,13.79
2022-09-11T03:48:13.132Z,13.51
2022-09-11T03:50:58.959Z,13.41
2022-09-11T03:53:44.618Z,13.46
2022-09-11T03:56:30.515Z,12.44
2022-09-11T03:59:15.998Z,13.39
2022-09-11T04:02:02.770Z,12.33
2022-09-11T04:04:48.618Z,13.27
2022-09-11T04:07:35.426Z,13.57
2022-09-11T04:10:21.521Z,12.60
2022-09-11T04:13:07.217Z,13.47
2022-09-11T04:15:52.787Z,12.95
2022-09-11T04:18:40.206Z,13.12
2022-09-11T04:21:27.720Z,12.53
2022-09-11T04:24:15.270Z,13.68
2022-09-11T04:27:03.520Z,13.71
2022-09-11T04:29:50.172Z,13.76
2022-09-11T04:32:35.836Z,13.77
2022-09-11T04:35:21.658Z,13.39
2022-09-11T04:38:13.398Z,13.89
2022-09-11T04:41:02.218Z,13.84
2022-09-11T04:43:47.697Z,13.95
2022-09-11T04:46:33.453Z,12.86
2022-09-11T04:49:20.204Z,13.78
2022-09-11T04:52:07.298Z,12.90
2022-09-11T04:54:54.128Z,14.13
2022-09-11T04:57:39.510Z,14.19
2022-09-11T05:00:25.163Z,14.22
2022-09-11T05:03:11.431Z,14.27
2022-09-11T05:05:57.576Z,14.26
2022-09-11T05:08:44.809Z,13.17
2022-09-11T05:11:32.955Z,13.33
2022-09-11T05:14:18.589Z,14.38
2022-09-11T05:17:06.847Z,13.57
2022-09-11T05:19:56.922Z,14.28
2022-09-11T05:22:42.721Z,14.40
2022-09-11T05:25:32.079Z,14.43
2022-09-11T05:28:17.840Z,14.48
2022-09-11T05:31:18.333Z,14.28
2022-09-11T05:34:05.161Z,14.25
2022-09-11T05:36:52.096Z,13.63
2022-09-11T05:39:37.775Z,13.34
2022-09-11T05:42:24.805Z,14.31
2022-09-11T05:45:13.359Z,14.40
2022-09-11T05:47:58.851Z,14.50
2022-09-11T05:50:53.682Z,14.60
2022-09-11T05:53:41.512Z,14.66
2022-09-11T05:56:30.054Z,14.66
2022-09-11T05:59:20.405Z,14.59
2022-09-11T06:02:11.213Z,14.56
2022-09-11T06:05:02.705Z,14.79
2022-09-11T06:07:51.665Z,14.85
2022-09-11T06:10:46.399Z,14.76
2022-09-11T06:13:34.817Z,14.70
2022-09-11T06:16:22.916Z,14.78
2022-09-11T06:19:08.829Z,12.82
2022-09-11T06:21:56.622Z,15.10
2022-09-11T06:24:48.064Z,15.16
2022-09-11T06:27:34.883Z,14.27
2022-09-11T06:30:20.414Z,15.05
2022-09-11T06:33:08.027Z,15.21
2022-09-11T06:36:02.879Z,15.26
2022-09-11T06:38:58.203Z,14.35
2022-09-11T06:41:46.882Z,15.20
2022-09-11T06:44:34.277Z,14.15
2022-09-11T06:47:21.590Z,15.23
2022-09-11T06:50:08.094Z,14.21
2022-09-11T06:53:07.328Z,15.23
2022-09-11T06:56:02.662Z,15.13
2022-09-11T06:58:50.571Z,15.23
2022-09-11T07:01:41.427Z,15.03
2022-09-11T07:04:28.653Z,14.81
2022-09-11T07:07:15.317Z,15.24
2022-09-11T07:10:05.143Z,15.13
2022-09-11T07:12:55.886Z,15.20
2022-09-11T07:15:42.738Z,15.20
2022-09-11T07:18:40.369Z,15.20
2022-09-11T07:21:30.023Z,15.27
2022-09-11T07:24:20.785Z,15.33
2022-09-11T07:27:08.768Z,15.38
2022-09-11T07:29:56.129Z,14.83
2022-09-11T07:32:45.092Z,15.46
2022-09-11T07:35:31.130Z,15.44
2022-09-11T07:38:16.811Z,15.52
2022-09-11T07:41:10.725Z,15.56
2022-09-11T07:44:00.451Z,15.54
2022-09-11T07:46:49.848Z,15.56
2022-09-11T07:49:35.980Z,15.54
2022-09-11T07:52:23.754Z,15.20
2022-09-11T07:55:13.459Z,15.68
2022-09-11T07:58:01.642Z,15.70
2022-09-11T08:00:49.794Z,15.68
2022-09-11T08:03:39.515Z,15.69
2022-09-11T08:06:27.503Z,15.77
2022-09-11T08:09:15.727Z,13.59
2022-09-11T08:12:10.077Z,15.60
2022-09-11T08:14:55.689Z,14.89
2022-09-11T08:17:42.858Z,15.16
2022-09-11T08:20:29.289Z,15.85
2022-09-11T08:23:18.101Z,15.76
2022-09-11T08:26:12.085Z,15.88
2022-09-11T08:29:00.890Z,15.89
2022-09-11T08:31:50.590Z,15.95
2022-09-11T08:34:38.258Z,15.11
2022-09-11T08:37:23.891Z,16.09
2022-09-11T08:40:11.754Z,16.10
2022-09-11T08:43:01.800Z,16.15
2022-09-11T08:45:48.945Z,15.15
2022-09-11T08:49:02.262Z,16.22
2022-09-11T08:51:58.304Z,15.26
2022-09-11T08:54:47.608Z,15.35
2022-09-11T08:57:49.183Z,16.18
2022-09-11T09:00:46.785Z,16.43
2022-09-11T09:04:13.506Z,16.56
2022-09-11T09:07:32.156Z,16.61
2022-09-11T09:10:45.851Z,16.64
2022-09-11T09:14:07.656Z,16.67
2022-09-11T09:17:02.451Z,16.71
2022-09-11T09:20:01.791Z,16.52
2022-09-11T09:22:59.611Z,16.66
2022-09-11T09:25:49.088Z,16.15
2022-09-11T09:28:43.279Z,15.60
2022-09-11T09:31:33.568Z,16.25
2022-09-11T09:34:21.852Z,16.48
2022-09-11T09:37:21.972Z,17.27
2022-09-11T09:40:16.619Z,17.23
2022-09-11T09:43:18.085Z,17.38
2022-09-11T09:46:15.884Z,17.39
2022-09-11T09:49:01.441Z,16.64
2022-09-11T09:51:48.442Z,17.23
2022-09-11T09:54:36.499Z,17.14
2022-09-11T09:57:27.049Z,17.24
2022-09-11T10:00:15.933Z,17.76
2022-09-11T10:03:19.128Z,17.82
2022-09-11T10:06:05.430Z,17.04
2022-09-11T10:09:00.123Z,17.91
2022-09-11T10:12:07.430Z,18.29
2022-09-11T10:15:01.297Z,17.95
2022-09-11T10:17:47.085Z,18.19
2022-09-11T10:20:33.065Z,17.98
2022-09-11T10:23:26.492Z,18.25
2022-09-11T10:26:21.430Z,17.39
2022-09-11T10:29:16.102Z,17.37
2022-09-11T10:32:03.423Z,18.07
2022-09-11T10:34:49.032Z,17.86
2022-09-11T10:37:34.614Z,16.65
2022-09-11T10:40:23.140Z,17.33
2022-09-11T10:43:25.087Z,16.32
2022-09-11T10:46:30.351Z,17.37
2022-09-11T10:49:22.992Z,16.42
2022-09-11T10:52:08.339Z,17.26
2022-09-11T10:55:15.928Z,17.18
2022-09-11T10:58:11.107Z,16.86
2022-09-11T11:00:56.784Z,15.61
2022-09-11T11:03:43.252Z,16.90
2022-09-11T11:06:57.794Z,17.06
2022-09-11T11:10:15.740Z,17.36
2022-09-11T11:13:30.835Z,17.65
2022-09-11T11:16:33.746Z,17.80
2022-09-11T11:19:46.477Z,17.17
2022-09-11T11:22:44.791Z,17.94
2022-09-11T11:25:51.090Z,17.91
2022-09-11T11:28:58.694Z,17.72
2022-09-11T11:32:02.230Z,16.69
2022-09-11T11:35:01.598Z,17.19
2022-09-11T11:37:50.111Z,16.20
2022-09-11T11:40:42.871Z,16.36
2022-09-11T11:43:32.907Z,17.19
2022-09-11T11:46:35.589Z,17.12
2022-09-11T11:49:27.270Z,17.05
2022-09-11T11:52:30.109Z,17.00
2022-09-11T11:55:21.385Z,15.91
2022-09-11T11:58:34.574Z,16.08
2022-09-11T12:01:28.908Z,16.55
2022-09-11T12:04:40.553Z,16.72
2022-09-11T12:07:32.745Z,15.95
2022-09-11T12:10:22.847Z,17.04
2022-09-11T12:13:17.334Z,16.15
2022-09-11T12:16:27.969Z,16.90
2022-09-11T12:19:24.168Z,16.10
2022-09-11T12:22:12.411Z,17.24
2022-09-11T12:24:59.215Z,16.29
2022-09-11T12:27:51.903Z,17.43
2022-09-11T12:31:06.059Z,17.49
2022-09-11T12:33:54.599Z,17.51
2022-09-11T12:36:55.269Z,17.55
2022-09-11T12:39:59.525Z,17.62
2022-09-11T12:42:48.534Z,17.65
2022-09-11T12:45:38.817Z,17.75
2022-09-11T12:48:38.614Z,17.11
2022-09-11T12:51:33.464Z,16.82
2022-09-11T12:54:39.031Z,17.30
2022-09-11T12:57:35.135Z,16.84
2022-09-11T13:00:34.987Z,17.90
2022-09-11T13:03:24.643Z,17.47
2022-09-11T13:06:13.774Z,16.73
2022-09-11T13:09:03.151Z,17.99
2022-09-11T13:11:52.422Z,17.78
2022-09-11T13:14:56.461Z,18.01
2022-09-11T13:17:50.540Z,18.02
2022-09-11T13:20:36.723Z,18.03
2022-09-11T13:23:22.768Z,18.05
2022-09-11T13:26:16.084Z,17.87
2022-09-11T13:29:01.959Z,17.94
2022-09-11T13:31:47.917Z,17.97
2022-09-11T13:34:36.399Z,17.13
2022-09-11T13:37:50.012Z,17.90
2022-09-11T13:40:47.710Z,17.85
2022-09-11T13:43:58.371Z,17.46
2022-09-11T13:46:51.158Z,16.47
2022-09-11T13:49:39.173Z,16.50
2022-09-11T13:52:28.182Z,16.19
2022-09-11T13:55:19.307Z,16.14
2022-09-11T13:58:23.241Z,17.15
2022-09-11T14:01:14.418Z,16.98
2022-09-11T14:04:00.248Z,17.28
2022-09-11T14:06:46.739Z,16.87
2022-09-11T14:09:32.606Z,16.70
2022-09-11T14:12:20.372Z,16.79
2022-09-11T14:15:20.345Z,16.67
2022-09-11T14:18:12.646Z,15.85
2022-09-11T14:21:00.131Z,16.72
2022-09-11T14:23:50.242Z,16.61
2022-09-11T14:26:35.482Z,16.31
2022-09-11T14:29:29.450Z,16.21
2022-09-11T14:32:24.278Z,16.23
2022-09-11T14:35:11.852Z,16.07
2022-09-11T14:37:57.230Z,15.20
2022-09-11T14:40:49.703Z,14.48
2022-09-11T14:43:38.404Z,15.76
2022-09-11T14:46:24.042Z,15.66
2022-09-11T14:49:10.942Z,15.44
2022-09-11T14:52:00.879Z,15.49
2022-09-11T14:54:47.589Z,15.81
2022-09-11T14:57:34.527Z,15.85
2022-09-11T15:00:20.434Z,15.88
2022-09-11T15:03:06.157Z,15.93
2022-09-11T15:05:57.900Z,15.97
2022-09-11T15:08:46.467Z,16.02
2022-09-11T15:11:37.425Z,16.06
2022-09-11T15:14:52.002Z,15.07
2022-09-11T15:17:32.031Z,15.04
2022-09-11T15:20:19.119Z,16.04
2022-09-11T15:23:05.697Z,15.95
2022-09-11T15:26:01.404Z,14.82
2022-09-11T15:28:50.825Z,14.78
2022-09-11T15:31:37.754Z,15.91
2022-09-11T15:34:23.826Z,15.62
2022-09-11T15:37:09.160Z,15.83
2022-09-11T15:39:54.571Z,15.55
2022-09-11T15:42:39.978Z,16.01
2022-09-11T15:45:26.109Z,15.13
2022-09-11T15:48:12.342Z,16.02
2022-09-11T15:51:02.060Z,15.33
2022-09-11T15:53:48.542Z,15.97
2022-09-11T15:56:35.947Z,16.00
2022-09-11T15:59:21.801Z,15.97
2022-09-11T16:02:09.153Z,15.95
2022-09-11T16:04:54.845Z,15.64
2022-09-11T16:07:41.177Z,15.60
2022-09-11T16:10:27.880Z,15.44
2022-09-11T16:13:13.563Z,15.90
2022-09-11T16:16:04.194Z,15.84
2022-09-11T16:18:50.326Z,14.90
2022-09-11T16:21:35.985Z,16.01
2022-09-11T16:24:21.947Z,16.00
2022-09-11T16:27:10.261Z,16.07
2022-09-11T16:33:02.331Z,16.11
2022-09-11T16:36:06.865Z,15.90
2022-09-11T16:38:52.690Z,15.88
2022-09-11T16:41:38.768Z,15.95
2022-09-11T16:44:24.404Z,16.05
2022-09-11T16:47:09.893Z,15.68
2022-09-11T16:50:10.853Z,15.58
2022-09-11T16:52:56.888Z,15.85
2022-09-11T16:55:42.565Z,15.91
2022-09-11T16:58:29.624Z,15.80
2022-09-11T17:01:18.380Z,15.69
2022-09-11T17:04:04.123Z,15.36
2022-09-11T17:06:49.484Z,14.73
2022-09-11T17:09:35.410Z,15.69
2022-09-11T17:12:22.282Z,14.99
2022-09-11T17:15:08.577Z,15.51
2022-09-11T17:17:55.321Z,15.53
2022-09-11T17:20:56.908Z,15.51
2022-09-11T17:23:42.460Z,14.41
2022-09-11T17:26:28.242Z,14.48
2022-09-11T17:29:13.687Z,15.03
2022-09-11T17:32:17.112Z,15.05
2022-09-11T17:35:05.317Z,15.16
2022-09-11T17:37:51.064Z,15.20
2022-09-11T17:40:36.699Z,14.80
2022-09-11T17:43:22.688Z,15.01
2022-09-11T17:46:14.981Z,14.69
2022-09-11T17:49:00.631Z,14.37
2022-09-11T17:51:46.233Z,13.95
2022-09-11T17:54:31.499Z,13.59
2022-09-11T17:57:16.969Z,13.66
2022-09-11T18:00:04.482Z,13.40
2022-09-11T18:02:58.933Z,13.01
2022-09-11T18:05:45.111Z,12.67
2022-09-11T18:08:33.241Z,11.88
2022-09-11T18:11:19.197Z,11.72
2022-09-11T18:14:05.734Z,12.76
2022-09-11T18:16:51.276Z,12.50
2022-09-11T18:19:38.829Z,11.50
2022-09-11T18:22:24.451Z,11.47
2022-09-11T18:25:10.514Z,12.61
2022-09-11T18:27:56.726Z,12.56
2022-09-11T18:30:43.243Z,12.53
2022-09-11T18:33:28.992Z,11.93
2022-09-11T18:36:14.510Z,12.39
2022-09-11T18:39:02.039Z,11.26
2022-09-11T18:41:48.963Z,12.54
2022-09-11T18:44:34.486Z,11.76
2022-09-11T18:47:20.794Z,12.53
2022-09-11T18:50:07.093Z,12.59
2022-09-11T18:52:53.104Z,12.69
2022-09-11T18:55:38.927Z,12.74
2022-09-11T18:58:24.721Z,11.68
2022-09-11T19:01:12.776Z,11.85
2022-09-11T19:04:00.057Z,13.12
2022-09-11T19:06:46.452Z,12.95
2022-09-11T19:09:31.983Z,12.92
2022-09-11T19:12:17.373Z,12.12
2022-09-11T19:15:04.281Z,13.52
2022-09-11T19:17:50.807Z,13.46
2022-09-11T19:20:37.336Z,12.33
2022-09-11T19:23:23.295Z,13.35
2022-09-11T19:26:12.392Z,13.03
2022-09-11T19:29:00.244Z,13.60
2022-09-11T19:31:46.805Z,13.61
2022-09-11T19:34:37.285Z,12.52
2022-09-11T19:37:24.480Z,13.66
2022-09-11T19:40:12.019Z,13.41
2022-09-11T19:42:59.816Z,13.65
2022-09-11T19:45:46.242Z,13.65
2022-09-11T19:48:33.981Z,13.62
2022-09-11T19:51:23.159Z,13.60
2022-09-11T19:54:10.718Z,13.63
2022-09-11T19:56:57.303Z,13.43
2022-09-11T19:59:43.111Z,13.65
2022-09-11T20:02:28.666Z,13.66
2022-09-11T20:05:14.176Z,13.02
2022-09-11T20:08:00.506Z,13.61
2022-09-11T20:10:47.169Z,13.61
2022-09-11T20:13:34.752Z,13.20
2022-09-11T20:16:23.615Z,12.94
2022-09-11T20:19:10.414Z,13.38
2022-09-11T20:21:56.096Z,13.30
2022-09-11T20:24:41.419Z,12.96
2022-09-11T20:27:27.478Z,13.12
2022-09-11T20:30:13.239Z,12.76
2022-09-11T20:33:00.578Z,12.98
2022-09-11T20:35:46.616Z,12.90
2022-09-11T20:38:32.510Z,12.74
2022-09-11T20:41:19.104Z,12.72
2022-09-11T20:44:04.709Z,12.68
2022-09-11T20:46:51.149Z,12.42
2022-09-11T20:49:36.399Z,11.68
2022-09-11T20:52:21.826Z,12.42
2022-09-11T20:55:07.815Z,12.66
2022-09-11T20:57:53.441Z,12.18
2022-09-11T21:00:39.925Z,12.82
2022-09-11T21:03:26.601Z,11.71
2022-09-11T21:06:12.130Z,13.01
2022-09-11T21:09:00.468Z,11.84
2022-09-11T21:11:46.787Z,11.93
2022-09-11T21:14:32.286Z,13.09
2022-09-11T21:17:18.109Z,13.13
2022-09-11T21:20:03.896Z,12.13
2022-09-11T21:22:49.728Z,13.21
2022-09-11T21:25:40.290Z,13.25
2022-09-11T21:28:26.099Z,12.98
2022-09-11T21:31:13.145Z,13.30
2022-09-11T21:33:59.067Z,13.27
2022-09-11T21:36:44.759Z,13.31
2022-09-11T21:39:30.213Z,13.30
2022-09-11T21:42:15.856Z,12.54
2022-09-11T21:45:01.259Z,12.19
2022-09-11T21:47:46.776Z,13.31
2022-09-11T21:50:32.495Z,12.43
2022-09-11T21:53:18.895Z,13.32
2022-09-11T21:56:05.339Z,12.29
2022-09-11T21:58:51.507Z,12.86
2022-09-11T22:01:37.270Z,11.87
2022-09-11T22:04:22.503Z,12.93
2022-09-11T22:07:08.202Z,12.70
2022-09-11T22:09:54.078Z,11.55
2022-09-11T22:12:39.450Z,12.25
2022-09-11T22:15:24.759Z,12.12
2022-09-11T22:18:10.556Z,12.18
2022-09-11T22:21:00.261Z,10.78
2022-09-11T22:23:45.851Z,10.94
2022-09-11T22:26:32.505Z,11.63
2022-09-11T22:29:18.155Z,11.82
2022-09-11T22:32:05.105Z,11.75
2022-09-11T22:34:50.672Z,11.77
2022-09-11T22:37:35.996Z,11.76
2022-09-11T22:40:21.846Z,11.56
2022-09-11T22:43:08.132Z,10.37
2022-09-11T22:45:53.695Z,11.54
2022-09-11T22:48:39.917Z,10.48
2022-09-11T22:51:25.407Z,10.67
2022-09-11T22:54:13.749Z,11.38
2022-09-11T22:56:59.542Z,10.44
2022-09-11T22:59:48.032Z,10.99
2022-09-11T23:02:33.806Z,11.05
2022-09-11T23:05:38.226Z,11.42
2022-09-11T23:08:44.759Z,10.17
2022-09-11T23:11:30.285Z,10.81
2022-09-11T23:14:15.557Z,11.24
2022-09-11T23:17:01.021Z,10.97
2022-09-11T23:19:46.490Z,10.01
2022-09-11T23:22:31.853Z,10.97
2022-09-11T23:25:17.346Z,11.21
2022-09-11T23:28:02.661Z,11.24
2022-09-11T23:30:48.206Z,11.23
2022-09-11T23:33:33.565Z,11.16
2022-09-11T23:36:18.984Z,9.98
2022-09-11T23:39:04.502Z,11.17
2022-09-11T23:41:50.289Z,11.28
2022-09-11T23:44:35.998Z,10.06
2022-09-11T23:47:21.497Z,11.11
2022-09-11T23:50:07.797Z,11.10
2022-09-11T23:52:53.380Z,11.20
2022-09-11T23:55:42.273Z,10.53
2022-09-11T23:58:27.881Z,11.22
